Time;durP1;ratioP1;P1;durP2;ratioP2;P2;SDS_P1;SDS_P2;PMS_P1;PMS_P2;Temp;Humidity;BMP_temperature;BMP_pressure;BME280_temperature;BME280_humidity;BME280_pressure;Samples;Min_cycle;Max_cycle;Signal;HPM_P1;HPM_P2
2021/05/25 00:01:49;;;;;;;0.20;0.13;;;10.70;89.60;;;;;;4990321;28;20106;-77
2021/05/25 00:04:15;;;;;;;2.28;0.40;;;10.70;89.70;;;;;;4980968;28;20456;-77
2021/05/25 00:06:40;;;;;;;0.47;0.25;;;10.60;89.60;;;;;;4960490;28;20522;-78
2021/05/25 00:09:06;;;;;;;2.00;0.47;;;10.60;89.80;;;;;;4969550;28;20046;-79
2021/05/25 00:11:32;;;;;;;1.60;0.30;;;10.50;89.90;;;;;;4959971;28;20030;-78
2021/05/25 00:13:58;;;;;;;0.43;0.20;;;10.50;90.00;;;;;;4970499;28;20381;-79
2021/05/25 00:16:24;;;;;;;1.52;0.40;;;10.40;90.30;;;;;;4997971;28;20080;-79
2021/05/25 00:18:49;;;;;;;4.05;0.80;;;10.40;90.40;;;;;;4967744;28;20030;-78
2021/05/25 00:21:15;;;;;;;0.25;0.20;;;10.40;90.50;;;;;;4982782;28;20030;-79
2021/05/25 00:23:40;;;;;;;0.45;0.10;;;10.30;90.50;;;;;;4992421;28;20484;-78
2021/05/25 00:26:06;;;;;;;0.68;0.20;;;10.30;90.60;;;;;;4975377;28;20037;-78
2021/05/25 00:28:31;;;;;;;0.82;0.30;;;10.30;90.50;;;;;;4993327;28;20068;-78
2021/05/25 00:30:57;;;;;;;0.65;0.45;;;10.20;90.60;;;;;;4997846;28;20092;-78
2021/05/25 00:33:22;;;;;;;2.22;0.30;;;10.30;90.40;;;;;;4980960;28;20026;-78
2021/05/25 00:35:48;;;;;;;1.17;0.40;;;10.20;90.50;;;;;;4995795;28;20408;-78
2021/05/25 00:38:13;;;;;;;0.73;0.20;;;10.20;90.40;;;;;;4994136;28;20054;-78
2021/05/25 00:40:39;;;;;;;0.93;0.38;;;10.20;90.60;;;;;;4961362;28;20543;-78
2021/05/25 00:43:05;;;;;;;0.50;0.40;;;10.10;90.80;;;;;;4989218;28;20037;-78
2021/05/25 00:45:30;;;;;;;0.90;0.43;;;10.10;90.50;;;;;;4992764;28;20105;-78
2021/05/25 00:47:56;;;;;;;1.75;0.77;;;10.10;90.50;;;;;;4987901;28;20049;-78
2021/05/25 00:50:25;;;;;;;2.30;0.47;;;10.10;90.50;;;;;;4991673;28;20114;-78
2021/05/25 00:52:53;;;;;;;1.20;0.30;;;10.00;90.50;;;;;;4994537;28;20045;-78
2021/05/25 00:55:37;;;;;;;2.58;0.43;;;10.00;90.60;;;;;;4980083;28;20042;-78
2021/05/25 00:58:05;;;;;;;0.30;0.20;;;10.00;90.40;;;;;;4984730;28;20038;-78
2021/05/25 01:00:37;;;;;;;2.47;0.40;;;10.00;90.60;;;;;;4977500;28;20038;-79
2021/05/25 01:03:03;;;;;;;1.83;0.40;;;10.00;90.60;;;;;;4979386;28;20061;-79
2021/05/25 01:05:29;;;;;;;1.25;0.43;;;10.00;90.60;;;;;;4958172;28;20042;-79
2021/05/25 01:07:55;;;;;;;1.73;0.40;;;9.90;91.10;;;;;;4983693;28;20551;-79
2021/05/25 01:10:29;;;;;;;1.65;0.40;;;9.90;91.10;;;;;;4963099;28;20498;-77
2021/05/25 01:12:58;;;;;;;0.80;0.50;;;9.80;91.10;;;;;;4993758;28;20030;-79
2021/05/25 01:15:24;;;;;;;2.88;0.30;;;9.90;91.20;;;;;;4965762;28;20375;-79
2021/05/25 01:17:52;;;;;;;0.60;0.60;;;9.90;91.20;;;;;;4990249;28;20037;-79
2021/05/25 01:20:18;;;;;;;2.03;0.60;;;9.90;91.20;;;;;;4978173;28;20103;-79
2021/05/25 01:22:44;;;;;;;0.73;0.43;;;9.90;91.20;;;;;;4966804;28;20398;-79
2021/05/25 01:25:13;;;;;;;1.83;0.30;;;9.80;91.10;;;;;;4990844;28;20056;-79
2021/05/25 01:27:39;;;;;;;0.68;0.40;;;9.90;91.20;;;;;;4953478;28;20037;-79
2021/05/25 01:30:06;;;;;;;1.65;0.35;;;9.80;91.20;;;;;;4991388;28;20040;-79
2021/05/25 01:32:32;;;;;;;0.80;0.50;;;9.90;91.20;;;;;;4988617;28;20114;-79
2021/05/25 01:34:57;;;;;;;0.68;0.30;;;9.80;91.10;;;;;;4977633;28;20310;-79
2021/05/25 01:37:23;;;;;;;0.75;0.40;;;9.90;91.20;;;;;;4964475;28;20474;-79
2021/05/25 01:39:53;;;;;;;0.82;0.45;;;9.90;91.00;;;;;;4993715;28;20038;-79
2021/05/25 01:42:18;;;;;;;2.60;0.50;;;9.90;91.00;;;;;;4992852;28;20478;-79
2021/05/25 01:44:44;;;;;;;2.30;0.40;;;9.90;91.00;;;;;;4983183;28;20065;-79
2021/05/25 01:47:09;;;;;;;1.52;0.40;;;9.90;91.00;;;;;;4967852;28;20026;-79
2021/05/25 01:49:35;;;;;;;0.68;0.20;;;9.90;90.90;;;;;;4956938;28;20485;-79
2021/05/25 01:52:01;;;;;;;0.90;0.40;;;9.90;90.90;;;;;;4997205;28;20034;-79
2021/05/25 01:54:26;;;;;;;2.13;0.40;;;9.80;91.00;;;;;;4967488;28;20522;-79
2021/05/25 01:56:52;;;;;;;0.82;0.43;;;9.80;91.00;;;;;;4976304;28;20108;-79
2021/05/25 01:59:18;;;;;;;0.63;0.50;;;9.80;91.00;;;;;;4966748;28;20021;-79
2021/05/25 02:01:44;;;;;;;0.40;0.20;;;9.70;90.70;;;;;;4976753;28;20156;-79
2021/05/25 02:04:10;;;;;;;1.40;0.40;;;9.80;91.00;;;;;;4980315;28;20109;-77
2021/05/25 02:06:35;;;;;;;1.55;0.50;;;9.80;90.80;;;;;;4972444;28;20481;-77
2021/05/25 02:09:01;;;;;;;4.93;0.57;;;9.80;90.80;;;;;;4978205;28;20060;-77
2021/05/25 02:11:26;;;;;;;1.08;0.32;;;9.70;91.20;;;;;;4993793;28;20520;-80
2021/05/25 02:13:52;;;;;;;1.63;0.40;;;9.80;90.90;;;;;;4999180;28;20034;-77
2021/05/25 02:16:18;;;;;;;1.15;0.50;;;9.70;90.70;;;;;;4995754;28;20030;-77
2021/05/25 02:18:46;;;;;;;0.30;0.10;;;9.70;90.70;;;;;;4984743;28;20034;-77
2021/05/25 02:21:13;;;;;;;2.40;0.35;;;9.70;90.70;;;;;;4984564;28;20592;-77
2021/05/25 02:23:38;;;;;;;3.80;0.35;;;9.70;90.70;;;;;;4980305;28;20493;-76
2021/05/25 02:26:04;;;;;;;0.60;0.30;;;9.70;90.80;;;;;;4967812;28;20031;-77
2021/05/25 02:28:30;;;;;;;1.38;0.25;;;9.70;90.80;;;;;;4980523;28;20056;-77
2021/05/25 02:30:55;;;;;;;1.67;0.40;;;9.70;90.70;;;;;;5000797;28;20358;-77
2021/05/25 02:33:22;;;;;;;0.50;0.30;;;9.70;90.70;;;;;;4966130;28;20498;-78
2021/05/25 02:35:49;;;;;;;0.10;0.08;;;9.60;90.70;;;;;;4996877;28;20046;-79
2021/05/25 02:38:14;;;;;;;0.77;0.10;;;9.60;90.70;;;;;;4976818;28;20026;-79
2021/05/25 02:40:44;;;;;;;2.35;0.35;;;9.60;90.80;;;;;;4993021;28;20571;-78
2021/05/25 02:43:09;;;;;;;0.95;0.40;;;9.60;90.80;;;;;;4981368;28;20046;-79
2021/05/25 02:45:35;;;;;;;0.82;0.22;;;9.60;90.90;;;;;;4970272;28;20117;-78
2021/05/25 02:48:01;;;;;;;0.85;0.32;;;9.60;90.70;;;;;;4990452;28;20041;-79
2021/05/25 02:50:27;;;;;;;1.58;0.30;;;9.60;90.80;;;;;;4971963;28;20540;-79
2021/05/25 02:52:53;;;;;;;0.30;0.30;;;9.60;90.80;;;;;;4992933;28;20323;-77
2021/05/25 02:55:24;;;;;;;0.57;0.28;;;9.60;90.80;;;;;;4995445;28;20030;-79
2021/05/25 02:57:49;;;;;;;2.55;0.20;;;9.50;90.70;;;;;;4983643;28;20056;-78
2021/05/25 03:00:36;;;;;;;2.88;0.45;;;9.50;90.60;;;;;;4994019;28;20034;-78
2021/05/25 03:03:02;;;;;;;0.98;0.75;;;9.50;90.60;;;;;;4989033;28;20034;-79
2021/05/25 03:05:27;;;;;;;1.77;0.30;;;9.50;90.60;;;;;;4992465;28;20050;-78
2021/05/25 03:07:55;;;;;;;5.55;0.30;;;9.40;90.60;;;;;;4988526;28;20081;-78
2021/05/25 03:10:24;;;;;;;1.00;0.30;;;9.40;90.60;;;;;;4967351;28;20467;-79
2021/05/25 03:12:49;;;;;;;0.80;0.20;;;9.50;90.60;;;;;;4968542;28;20030;-78
2021/05/25 03:15:17;;;;;;;3.42;0.47;;;9.50;90.40;;;;;;4997626;28;20027;-79
2021/05/25 03:17:43;;;;;;;1.08;0.40;;;9.40;90.60;;;;;;5000828;28;20519;-78
2021/05/25 03:20:10;;;;;;;2.55;0.30;;;9.50;90.50;;;;;;4968502;28;20054;-78
2021/05/25 03:22:35;;;;;;;1.08;0.55;;;9.40;90.50;;;;;;4997441;28;20130;-78
2021/05/25 03:25:01;;;;;;;3.53;0.30;;;9.40;90.40;;;;;;4977300;28;20458;-78
2021/05/25 03:27:26;;;;;;;1.60;0.32;;;9.40;90.60;;;;;;4994626;28;20018;-78
2021/05/25 03:29:52;;;;;;;0.98;0.30;;;9.40;90.60;;;;;;4992718;28;20445;-78
2021/05/25 03:32:18;;;;;;;1.67;0.22;;;9.40;90.60;;;;;;4997668;28;20037;-78
2021/05/25 03:34:43;;;;;;;3.47;0.30;;;9.40;90.60;;;;;;4980795;28;20030;-78
2021/05/25 03:37:09;;;;;;;1.30;0.52;;;9.40;90.60;;;;;;4988817;28;20033;-78
2021/05/25 03:39:34;;;;;;;0.95;0.40;;;9.40;90.50;;;;;;4991347;28;20692;-78
2021/05/25 03:42:00;;;;;;;5.07;0.40;;;9.30;90.60;;;;;;4969518;28;20030;-78
2021/05/25 03:44:26;;;;;;;4.57;0.30;;;9.30;90.60;;;;;;4984743;28;20026;-78
2021/05/25 03:46:52;;;;;;;0.55;0.30;;;9.30;90.60;;;;;;4976289;28;20022;-79
2021/05/25 03:49:17;;;;;;;0.77;0.30;;;9.30;90.60;;;;;;4974394;28;20432;-78
2021/05/25 03:51:43;;;;;;;0.80;0.40;;;9.30;90.70;;;;;;4991272;28;20030;-78
2021/05/25 03:54:13;;;;;;;3.70;0.40;;;9.40;90.60;;;;;;4997751;28;20073;-78
2021/05/25 03:56:50;;;;;;;3.60;0.50;;;9.40;90.70;;;;;;4977669;28;20029;-78
2021/05/25 03:59:15;;;;;;;1.98;0.30;;;9.30;90.70;;;;;;4990266;28;20306;-78
2021/05/25 04:01:41;;;;;;;1.75;0.50;;;9.30;90.80;;;;;;4992816;28;20457;-78
2021/05/25 04:04:06;;;;;;;1.40;0.40;;;9.40;90.70;;;;;;4974308;28;20030;-78
2021/05/25 04:06:32;;;;;;;0.63;0.38;;;9.40;90.60;;;;;;4968695;28;20026;-78
2021/05/25 04:08:57;;;;;;;1.90;0.40;;;9.40;90.60;;;;;;4974029;28;20117;-78
2021/05/25 04:11:23;;;;;;;2.58;0.43;;;9.40;90.60;;;;;;4962178;28;20474;-78
2021/05/25 04:13:48;;;;;;;1.63;0.40;;;9.40;90.70;;;;;;4992140;28;20041;-78
2021/05/25 04:16:14;;;;;;;1.17;0.40;;;9.40;90.70;;;;;;4979687;28;20433;-78
2021/05/25 04:18:40;;;;;;;0.40;0.30;;;9.40;90.60;;;;;;4988506;28;20486;-78
2021/05/25 04:21:06;;;;;;;2.75;0.40;;;9.40;90.80;;;;;;4963560;28;20069;-78
2021/05/25 04:23:31;;;;;;;2.05;1.10;;;9.40;91.00;;;;;;4960638;28;20042;-78
2021/05/25 04:25:57;;;;;;;1.45;0.30;;;9.40;91.80;;;;;;4985424;28;20121;-77
2021/05/25 04:28:22;;;;;;;7.10;0.50;;;9.40;91.70;;;;;;4967988;28;20034;-78
2021/05/25 04:30:48;;;;;;;1.40;0.40;;;9.30;91.70;;;;;;4964524;28;20375;-79
2021/05/25 04:33:14;;;;;;;0.40;0.20;;;9.30;91.70;;;;;;4959974;28;20038;-78
2021/05/25 04:35:39;;;;;;;2.30;0.20;;;9.30;92.00;;;;;;4995484;28;20069;-77
2021/05/25 04:38:05;;;;;;;1.25;0.35;;;9.20;92.10;;;;;;4976197;28;20026;-78
2021/05/25 04:40:32;;;;;;;2.50;0.30;;;9.20;92.20;;;;;;4993185;28;20485;-78
2021/05/25 04:42:58;;;;;;;0.52;0.30;;;9.20;92.00;;;;;;4988660;28;20038;-77
2021/05/25 04:45:23;;;;;;;0.90;0.35;;;9.20;92.10;;;;;;4979308;28;20036;-78
2021/05/25 04:47:49;;;;;;;1.52;0.40;;;9.20;92.20;;;;;;4989544;28;20409;-77
2021/05/25 04:50:14;;;;;;;0.40;0.30;;;9.10;92.20;;;;;;4966161;28;20076;-78
2021/05/25 04:52:42;;;;;;;4.72;0.47;;;9.10;92.20;;;;;;4993896;28;20120;-78
2021/05/25 04:55:12;;;;;;;1.55;0.50;;;9.10;92.10;;;;;;4995177;28;20531;-78
2021/05/25 04:57:38;;;;;;;0.98;0.32;;;9.20;92.40;;;;;;4961708;28;20402;-78
2021/05/25 05:00:05;;;;;;;1.13;0.50;;;9.20;92.40;;;;;;4955429;28;20034;-77
2021/05/25 05:02:32;;;;;;;1.40;0.47;;;9.20;92.50;;;;;;4995170;28;20049;-78
2021/05/25 05:04:57;;;;;;;1.67;0.45;;;9.20;92.50;;;;;;4968770;28;20033;-78
2021/05/25 05:07:23;;;;;;;0.32;0.30;;;9.20;92.60;;;;;;4980178;28;20041;-79
2021/05/25 05:09:48;;;;;;;0.47;0.17;;;9.20;92.60;;;;;;4977568;28;20030;-78
2021/05/25 05:12:14;;;;;;;2.95;0.77;;;9.20;92.50;;;;;;4991780;28;20038;-77
2021/05/25 05:14:39;;;;;;;1.15;0.25;;;9.20;92.70;;;;;;4994778;28;20034;-77
2021/05/25 05:17:05;;;;;;;0.40;0.35;;;9.30;92.40;;;;;;4979754;28;20022;-77
2021/05/25 05:19:31;;;;;;;4.80;0.40;;;9.30;92.50;;;;;;4968280;28;20038;-77
2021/05/25 05:21:56;;;;;;;0.40;0.30;;;9.40;92.40;;;;;;4992653;28;20109;-78
2021/05/25 05:24:22;;;;;;;1.08;0.47;;;9.40;92.30;;;;;;4974904;28;22316;-77
2021/05/25 05:26:47;;;;;;;1.52;0.60;;;9.40;92.60;;;;;;4963494;28;20434;-78
2021/05/25 05:29:13;;;;;;;1.52;0.50;;;9.40;92.90;;;;;;4985496;28;20381;-78
2021/05/25 05:31:38;;;;;;;2.00;1.00;;;9.40;92.60;;;;;;5000541;28;20046;-78
2021/05/25 05:34:04;;;;;;;2.38;1.02;;;9.40;92.70;;;;;;4966249;28;20041;-77
2021/05/25 05:36:30;;;;;;;1.33;0.45;;;9.40;92.90;;;;;;4979128;28;20114;-78
2021/05/25 05:38:55;;;;;;;1.00;0.40;;;9.50;93.00;;;;;;4993940;28;20042;-77
2021/05/25 05:41:21;;;;;;;0.38;0.35;;;9.50;93.00;;;;;;4991044;28;20079;-78
2021/05/25 05:43:46;;;;;;;1.85;0.70;;;9.60;93.00;;;;;;4980858;28;20096;-78
2021/05/25 05:46:14;;;;;;;2.47;0.55;;;9.70;93.10;;;;;;4971837;28;20088;-78
2021/05/25 05:48:39;;;;;;;2.03;0.60;;;9.80;92.90;;;;;;4982477;28;20037;-78
2021/05/25 05:51:05;;;;;;;4.20;0.70;;;9.90;93.00;;;;;;4981069;28;20030;-78
2021/05/25 05:53:30;;;;;;;0.82;0.50;;;9.90;92.90;;;;;;4999602;28;20033;-78
2021/05/25 05:55:56;;;;;;;1.58;0.73;;;10.00;92.40;;;;;;4975040;28;20389;-78
2021/05/25 05:58:21;;;;;;;2.72;0.80;;;10.00;92.40;;;;;;4985113;28;20426;-76
2021/05/25 06:00:47;;;;;;;1.17;0.85;;;10.10;92.30;;;;;;4984328;28;20226;-77
2021/05/25 06:03:13;;;;;;;1.15;0.50;;;9.90;93.10;;;;;;4969516;28;20030;-78
2021/05/25 06:05:38;;;;;;;1.95;0.60;;;9.90;93.20;;;;;;4972255;28;20038;-78
2021/05/25 06:08:05;;;;;;;1.85;0.70;;;9.90;93.40;;;;;;4992735;28;20034;-78
2021/05/25 06:10:31;;;;;;;2.28;0.68;;;9.90;93.30;;;;;;4959091;28;20037;-77
2021/05/25 06:12:57;;;;;;;2.00;0.60;;;9.80;93.40;;;;;;4972974;28;20035;-78
2021/05/25 06:15:23;;;;;;;1.73;0.80;;;9.90;93.20;;;;;;4961623;28;20057;-78
2021/05/25 06:17:48;;;;;;;3.88;0.88;;;9.90;93.30;;;;;;4971093;28;20070;-79
2021/05/25 06:20:14;;;;;;;2.42;0.73;;;9.80;93.40;;;;;;4981074;28;20034;-79
2021/05/25 06:22:40;;;;;;;1.05;0.70;;;9.80;93.20;;;;;;4966716;28;20037;-79
2021/05/25 06:25:06;;;;;;;2.90;0.80;;;9.70;93.30;;;;;;4994957;28;20037;-78
2021/05/25 06:27:32;;;;;;;2.70;0.65;;;9.70;93.30;;;;;;4981000;28;20045;-79
2021/05/25 06:29:58;;;;;;;1.10;0.70;;;9.70;93.40;;;;;;4964043;28;20030;-78
2021/05/25 06:32:23;;;;;;;1.60;0.82;;;9.70;93.40;;;;;;4988723;28;20036;-77
2021/05/25 06:34:51;;;;;;;1.63;0.80;;;9.70;93.50;;;;;;4965165;28;20494;-78
2021/05/25 06:37:16;;;;;;;2.25;0.90;;;9.70;93.50;;;;;;4979970;28;20505;-78
2021/05/25 06:39:42;;;;;;;0.60;0.55;;;9.70;93.60;;;;;;4974765;28;20428;-78
2021/05/25 06:42:09;;;;;;;2.03;0.90;;;9.70;93.70;;;;;;4991678;28;20046;-79
2021/05/25 06:44:35;;;;;;;2.47;0.75;;;9.80;93.60;;;;;;4985270;28;20452;-78
2021/05/25 06:47:00;;;;;;;0.90;0.55;;;9.90;93.50;;;;;;4970141;28;20042;-78
2021/05/25 06:49:26;;;;;;;3.25;0.85;;;9.90;93.60;;;;;;4978789;28;20561;-78
2021/05/25 06:51:52;;;;;;;1.35;0.75;;;9.90;93.90;;;;;;4965124;28;20023;-78
2021/05/25 06:54:17;;;;;;;1.15;0.50;;;9.90;93.80;;;;;;4980324;28;20114;-79
2021/05/25 06:56:43;;;;;;;0.47;0.38;;;9.90;93.70;;;;;;4962286;28;20406;-78
2021/05/25 06:59:08;;;;;;;1.63;0.70;;;9.80;93.80;;;;;;4978369;28;20026;-78
2021/05/25 07:01:34;;;;;;;0.65;0.32;;;9.80;94.00;;;;;;4981333;28;20037;-79
2021/05/25 07:03:59;;;;;;;0.93;0.50;;;9.90;94.10;;;;;;4985669;28;20508;-78
2021/05/25 07:06:26;;;;;;;1.10;0.50;;;9.80;93.80;;;;;;4963783;28;20045;-78
2021/05/25 07:08:51;;;;;;;0.60;0.30;;;9.80;93.70;;;;;;4964913;28;20553;-78
2021/05/25 07:11:17;;;;;;;2.28;0.57;;;9.80;93.60;;;;;;4966322;28;20110;-78
2021/05/25 07:13:43;;;;;;;1.23;0.47;;;9.70;93.60;;;;;;4979372;28;20493;-79
2021/05/25 07:16:08;;;;;;;4.28;0.50;;;9.70;93.60;;;;;;4981653;28;20030;-79
2021/05/25 07:18:34;;;;;;;0.55;0.30;;;9.70;93.50;;;;;;4992491;28;20503;-78
2021/05/25 07:20:59;;;;;;;1.02;0.50;;;9.60;93.60;;;;;;4990819;28;20034;-79
2021/05/25 07:23:25;;;;;;;1.45;0.47;;;9.60;93.60;;;;;;4979909;28;20378;-79
2021/05/25 07:25:50;;;;;;;0.77;0.40;;;9.70;93.50;;;;;;4962282;28;20030;-79
2021/05/25 07:28:16;;;;;;;3.15;0.40;;;9.70;93.40;;;;;;4958183;28;20034;-78
2021/05/25 07:30:43;;;;;;;1.27;0.50;;;9.80;93.40;;;;;;4978326;28;20485;-79
2021/05/25 07:33:09;;;;;;;0.52;0.32;;;9.80;93.60;;;;;;4966326;28;20048;-78
2021/05/25 07:35:34;;;;;;;0.65;0.35;;;10.10;93.50;;;;;;4999533;28;20121;-78
2021/05/25 07:38:00;;;;;;;1.10;0.50;;;10.30;93.20;;;;;;4955865;28;20034;-79
2021/05/25 07:40:25;;;;;;;0.75;0.50;;;10.40;93.40;;;;;;4989697;28;20401;-79
2021/05/25 07:42:51;;;;;;;0.60;0.60;;;10.40;93.00;;;;;;4959557;28;20036;-79
2021/05/25 07:45:16;;;;;;;2.05;0.40;;;10.40;93.30;;;;;;4993405;28;20198;-80
2021/05/25 07:47:42;;;;;;;1.75;1.00;;;10.30;93.20;;;;;;4984317;28;20125;-79
2021/05/25 07:50:14;;;;;;;0.50;0.50;;;10.30;93.50;;;;;;4979400;28;20445;-79
2021/05/25 07:52:44;;;;;;;1.88;0.35;;;10.20;93.50;;;;;;4992675;28;20091;-79
2021/05/25 07:55:10;;;;;;;0.45;0.40;;;10.10;93.30;;;;;;4996307;28;20033;-79
2021/05/25 07:57:37;;;;;;;0.95;0.45;;;10.00;93.40;;;;;;4991260;28;20449;-79
2021/05/25 08:00:06;;;;;;;0.40;0.30;;;9.90;94.10;;;;;;4987421;28;20101;-79
2021/05/25 08:02:32;;;;;;;0.65;0.52;;;10.00;93.30;;;;;;4976924;28;20100;-79
2021/05/25 08:04:57;;;;;;;0.60;0.47;;;10.00;93.40;;;;;;4970065;28;20324;-79
2021/05/25 08:07:23;;;;;;;2.08;0.60;;;10.10;93.40;;;;;;4991004;28;20449;-79
2021/05/25 08:09:48;;;;;;;1.27;0.60;;;10.20;93.60;;;;;;4979145;28;20038;-79
2021/05/25 08:12:14;;;;;;;1.48;0.68;;;10.30;93.40;;;;;;4964437;28;20026;-79
2021/05/25 08:14:40;;;;;;;2.05;0.50;;;10.40;93.30;;;;;;4983578;28;20064;-79
2021/05/25 08:17:16;;;;;;;1.30;0.45;;;10.60;93.30;;;;;;4979822;28;20033;-79
2021/05/25 08:19:43;;;;;;;0.93;0.60;;;10.70;92.90;;;;;;4995431;28;20045;-79
2021/05/25 08:22:09;;;;;;;0.57;0.35;;;10.80;93.10;;;;;;4961543;28;20485;-79
2021/05/25 08:24:34;;;;;;;0.70;0.70;;;10.80;92.90;;;;;;4958856;28;20025;-79
2021/05/25 08:27:00;;;;;;;3.90;0.98;;;10.80;92.80;;;;;;4996864;28;20030;-78
2021/05/25 08:29:25;;;;;;;2.33;0.47;;;10.80;93.00;;;;;;4977190;28;20324;-79
2021/05/25 08:31:51;;;;;;;3.55;0.50;;;10.90;92.80;;;;;;4984420;28;20029;-79
2021/05/25 08:34:16;;;;;;;2.28;1.20;;;10.80;92.90;;;;;;4959568;28;20057;-79
2021/05/25 08:36:42;;;;;;;1.95;1.02;;;10.90;93.40;;;;;;4979740;28;20084;-79
2021/05/25 08:39:07;;;;;;;1.05;1.00;;;11.40;93.20;;;;;;4991107;28;20085;-79
2021/05/25 08:41:34;;;;;;;2.60;1.10;;;11.70;92.80;;;;;;4992662;28;20048;-79
2021/05/25 08:44:01;;;;;;;1.10;0.80;;;11.60;92.50;;;;;;4969717;28;23355;-79
2021/05/25 08:46:26;;;;;;;2.00;1.25;;;11.60;92.80;;;;;;4981457;28;20125;-79
2021/05/25 08:48:52;;;;;;;2.03;0.90;;;11.60;93.20;;;;;;4995224;28;20108;-79
2021/05/25 08:51:18;;;;;;;1.13;1.10;;;11.60;92.30;;;;;;4991450;28;20030;-79
2021/05/25 08:53:43;;;;;;;1.60;0.50;;;11.70;93.10;;;;;;4982973;28;20397;-79
2021/05/25 08:56:09;;;;;;;1.67;1.08;;;11.60;92.30;;;;;;4994471;28;20490;-79
2021/05/25 08:58:34;;;;;;;2.88;1.77;;;11.40;92.40;;;;;;4992682;28;20030;-79
2021/05/25 09:01:00;;;;;;;1.58;1.48;;;11.40;92.70;;;;;;4980326;28;20118;-79
2021/05/25 09:03:25;;;;;;;2.50;1.80;;;11.60;92.80;;;;;;4991311;28;20040;-79
2021/05/25 09:06:07;;;;;;;1.35;0.77;;;11.80;93.40;;;;;;4979955;28;20038;-80
2021/05/25 09:08:34;;;;;;;1.42;1.33;;;12.00;92.30;;;;;;4981004;28;20042;-79
2021/05/25 09:11:09;;;;;;;1.30;1.20;;;12.00;92.40;;;;;;4994772;28;20512;-80
2021/05/25 09:13:35;;;;;;;1.90;1.73;;;12.40;93.10;;;;;;4982123;28;20034;-80
2021/05/25 09:16:02;;;;;;;4.47;1.67;;;12.70;92.20;;;;;;4969012;28;20029;-80
2021/05/25 09:18:33;;;;;;;2.88;1.55;;;12.90;92.40;;;;;;4992453;28;20337;-80
2021/05/25 09:21:03;;;;;;;1.55;1.45;;;13.00;92.90;;;;;;4969429;28;20038;-79
2021/05/25 09:23:34;;;;;;;1.30;0.80;;;13.50;92.20;;;;;;4980335;28;20272;-80
2021/05/25 09:26:05;;;;;;;3.72;1.67;;;13.80;91.70;;;;;;5002426;28;20032;-80
2021/05/25 09:28:31;;;;;;;4.88;1.25;;;13.80;92.30;;;;;;4975049;28;20042;-80
2021/05/25 09:30:57;;;;;;;1.65;1.55;;;14.50;91.30;;;;;;4967672;28;20030;-80
2021/05/25 09:33:22;;;;;;;2.67;1.50;;;14.90;92.30;;;;;;4992598;28;20037;-80
2021/05/25 09:35:49;;;;;;;2.10;1.90;;;15.10;90.50;;;;;;4993862;28;20037;-80
2021/05/25 09:38:24;;;;;;;3.58;2.60;;;15.30;91.80;;;;;;5001443;28;20554;-80
2021/05/25 09:40:51;;;;;;;1.80;1.20;;;15.70;91.10;;;;;;4984046;28;20058;-80
2021/05/25 09:43:23;;;;;;;2.58;1.30;;;15.90;89.50;;;;;;4988939;28;20034;-80
2021/05/25 09:46:10;;;;;;;1.63;1.50;;;16.10;89.00;;;;;;4976787;28;20113;-80
2021/05/25 09:48:41;;;;;;;1.98;1.60;;;15.70;88.00;;;;;;4968401;28;20081;-80
2021/05/25 09:51:32;;;;;;;2.63;1.42;;;15.70;88.60;;;;;;4992122;28;20062;-80
2021/05/25 09:53:58;;;;;;;1.83;1.60;;;15.00;88.40;;;;;;4964993;28;20070;-80
2021/05/25 09:56:26;;;;;;;1.95;1.60;;;15.40;87.50;;;;;;4979349;28;20082;-80
2021/05/25 09:58:52;;;;;;;1.45;1.35;;;15.20;88.50;;;;;;4980237;28;20041;-80
2021/05/25 10:01:17;;;;;;;1.42;1.20;;;15.50;87.10;;;;;;4994055;28;20045;-80
2021/05/25 10:03:52;;;;;;;2.17;1.85;;;15.70;87.40;;;;;;4965367;28;20168;-80
2021/05/25 10:06:18;;;;;;;2.10;1.73;;;16.20;88.00;;;;;;4981911;28;20311;-80
2021/05/25 10:08:44;;;;;;;3.30;1.98;;;16.20;88.30;;;;;;4982461;28;20064;-81
2021/05/25 10:11:10;;;;;;;2.70;2.40;;;15.70;89.20;;;;;;4994908;28;20040;-81
2021/05/25 10:13:35;;;;;;;4.15;2.35;;;15.90;89.70;;;;;;4970038;28;20489;-81
2021/05/25 10:16:01;;;;;;;2.13;1.92;;;15.70;90.10;;;;;;4971065;28;20069;-81
2021/05/25 10:20:56;;;;;;;2.05;1.85;;;15.30;90.60;;;;;;4977682;28;20088;-81
2021/05/25 10:23:22;;;;;;;2.13;1.45;;;15.30;90.20;;;;;;4988103;28;20125;-81
2021/05/25 10:25:49;;;;;;;2.35;1.63;;;15.30;90.00;;;;;;4967553;28;21087;-81
2021/05/25 10:28:14;;;;;;;4.60;1.25;;;14.70;90.40;;;;;;4985195;28;20490;-81
2021/05/25 10:30:44;;;;;;;2.33;0.98;;;14.20;90.60;;;;;;4985767;28;20040;-80
2021/05/25 10:33:09;;;;;;;0.90;0.90;;;13.90;90.60;;;;;;4976689;28;20030;-80
2021/05/25 10:35:50;;;;;;;0.90;0.90;;;13.30;90.80;;;;;;4995318;28;20105;-80
2021/05/25 10:38:16;;;;;;;1.90;1.00;;;13.10;90.90;;;;;;4995301;28;20110;-80
2021/05/25 10:40:46;;;;;;;1.13;0.90;;;13.00;91.10;;;;;;4952709;28;20038;-81
2021/05/25 10:43:40;;;;;;;1.23;1.00;;;12.90;91.10;;;;;;4968197;28;20099;-81
2021/05/25 10:46:11;;;;;;;4.80;1.30;;;12.80;91.10;;;;;;4985883;28;20085;-81
2021/05/25 10:52:16;;;;;;;2.65;1.25;;;12.70;91.20;;;;;;4995281;28;20036;-81
2021/05/25 10:54:45;;;;;;;6.63;2.15;;;12.50;91.40;;;;;;4995773;28;20121;-81
2021/05/25 10:57:35;;;;;;;6.70;2.10;;;12.40;91.70;;;;;;5000695;28;20042;-81
2021/05/25 11:00:11;;;;;;;3.05;1.50;;;12.40;91.50;;;;;;4979401;28;20030;-81
2021/05/25 11:02:42;;;;;;;6.07;2.20;;;12.50;91.90;;;;;;4982328;28;20457;-81
2021/05/25 11:05:37;;;;;;;3.00;1.42;;;12.40;91.60;;;;;;5003193;28;20023;-81
2021/05/25 11:08:09;;;;;;;5.53;2.22;;;12.50;91.60;;;;;;4994116;28;20114;-81
2021/05/25 11:11:15;;;;;;;5.30;2.92;;;12.50;91.40;;;;;;4999496;28;20469;-81
2021/05/25 11:13:43;;;;;;;7.68;3.38;;;12.40;91.90;;;;;;4963573;28;20061;-81
2021/05/25 11:16:28;;;;;;;8.05;2.28;;;12.30;92.40;;;;;;4989281;28;20589;-81
2021/05/25 11:18:59;;;;;;;3.03;1.50;;;12.20;92.30;;;;;;4977413;28;20050;-81
2021/05/25 11:24:31;;;;;;;8.02;1.70;;;11.70;92.80;;;;;;4996589;28;20062;-81
2021/05/25 11:27:01;;;;;;;7.05;1.50;;;11.60;92.30;;;;;;4975313;28;20034;-82
2021/05/25 11:29:31;;;;;;;4.78;1.38;;;11.40;92.40;;;;;;4996085;28;20026;-81
2021/05/25 11:31:59;;;;;;;2.92;1.27;;;11.30;92.30;;;;;;4985493;28;20489;-81
2021/05/25 11:34:26;;;;;;;2.95;1.38;;;11.10;92.40;;;;;;4969251;28;20048;-82
2021/05/25 11:36:58;;;;;;;4.18;1.00;;;11.10;92.80;;;;;;4979241;28;20049;-81
2021/05/25 11:39:24;;;;;;;0.88;0.82;;;11.00;92.60;;;;;;4969965;28;20029;-81
2021/05/25 11:41:49;;;;;;;1.38;1.15;;;10.90;92.40;;;;;;4969787;28;20041;-81
2021/05/25 11:44:16;;;;;;;2.97;1.50;;;10.90;93.00;;;;;;4979915;28;20843;-81
2021/05/25 11:46:46;;;;;;;2.45;1.40;;;10.80;92.80;;;;;;4978552;28;20342;-81
2021/05/25 11:49:12;;;;;;;7.13;2.65;;;10.70;92.80;;;;;;4984486;28;20073;-81
2021/05/25 11:51:38;;;;;;;4.13;1.88;;;10.80;92.50;;;;;;4997826;28;20112;-81
2021/05/25 11:54:16;;;;;;;4.65;1.50;;;10.90;93.10;;;;;;4981362;28;20048;-80
2021/05/25 11:56:44;;;;;;;3.38;2.00;;;11.10;93.40;;;;;;4981927;28;20026;-80
2021/05/25 11:59:11;;;;;;;5.72;2.78;;;11.50;93.70;;;;;;4997877;28;20046;-80
2021/05/25 12:01:45;;;;;;;5.10;3.03;;;12.00;94.60;;;;;;4982762;28;20537;-81
2021/05/25 12:04:10;;;;;;;5.68;2.72;;;12.30;94.50;;;;;;4965601;28;20037;-81
2021/05/25 12:06:56;;;;;;;8.43;3.33;;;12.40;93.60;;;;;;4967366;28;20038;-81
2021/05/25 12:09:27;;;;;;;4.22;3.65;;;12.50;94.20;;;;;;4979962;28;20469;-81
2021/05/25 12:11:56;;;;;;;4.45;2.25;;;12.70;94.30;;;;;;4979849;28;20029;-81
2021/05/25 12:14:41;;;;;;;5.72;4.03;;;13.00;94.20;;;;;;4976412;28;20046;-81
2021/05/25 12:17:07;;;;;;;5.38;3.10;;;13.60;94.10;;;;;;4970223;28;21913;-81
2021/05/25 12:19:34;;;;;;;3.25;2.15;;;14.00;94.30;;;;;;4978604;28;20038;-81
2021/05/25 12:22:04;;;;;;;5.57;3.05;;;14.40;93.30;;;;;;4966303;28;20076;-81
2021/05/25 12:24:30;;;;;;;3.78;3.38;;;15.00;94.30;;;;;;4977244;28;20038;-81
2021/05/25 12:26:57;;;;;;;8.23;4.70;;;15.00;93.30;;;;;;4997477;28;20034;-81
2021/05/25 12:29:25;;;;;;;6.93;4.50;;;15.70;92.80;;;;;;4975194;28;20182;-81
2021/05/25 12:31:50;;;;;;;5.93;4.15;;;16.20;92.60;;;;;;4979195;28;20049;-81
2021/05/25 12:34:17;;;;;;;7.07;3.90;;;16.50;92.50;;;;;;4954254;28;20042;-81
2021/05/25 12:36:58;;;;;;;7.57;4.63;;;16.50;92.70;;;;;;4965433;28;20208;-81
2021/05/25 12:39:36;;;;;;;16.65;4.07;;;16.20;92.70;;;;;;4964618;28;20026;-81
2021/05/25 12:42:05;;;;;;;3.40;2.38;;;16.00;92.00;;;;;;4965718;28;20043;-81
2021/05/25 12:44:32;;;;;;;5.43;2.25;;;14.70;91.30;;;;;;4987565;28;20433;-81
2021/05/25 12:47:10;;;;;;;3.90;2.33;;;13.80;92.00;;;;;;4985403;28;20033;-81
2021/05/25 12:49:37;;;;;;;4.30;2.33;;;13.30;91.80;;;;;;4980744;28;20030;-81
2021/05/25 12:52:24;;;;;;;5.72;2.45;;;12.90;92.10;;;;;;4969880;28;20022;-81
2021/05/25 12:55:01;;;;;;;5.95;2.42;;;12.50;92.60;;;;;;4985844;28;20034;-81
2021/05/25 12:57:43;;;;;;;4.63;2.40;;;12.30;92.10;;;;;;4975837;28;20053;-81
2021/05/25 13:00:09;;;;;;;2.50;1.63;;;12.00;92.40;;;;;;4974424;28;20062;-81
2021/05/25 13:02:41;;;;;;;2.95;2.05;;;12.00;92.80;;;;;;4973247;28;20069;-81
2021/05/25 13:05:11;;;;;;;5.43;3.33;;;11.80;92.40;;;;;;4994377;28;20038;-81